createdAt,value
2022-11-04T00:14:52.080Z,0
2022-11-04T00:29:52.042Z,0
2022-11-04T00:44:52.123Z,0
2022-11-04T00:59:52.038Z,0
2022-11-04T01:14:52.010Z,0
2022-11-04T01:29:52.005Z,2
2022-11-04T01:44:51.967Z,1
2022-11-04T01:59:51.981Z,2
2022-11-04T02:14:51.911Z,2
2022-11-04T02:29:51.945Z,0
2022-11-04T02:44:51.882Z,0
2022-11-04T02:59:51.920Z,0
2022-11-04T03:14:51.864Z,0
2022-11-04T03:29:51.900Z,0
2022-11-04T03:44:51.857Z,0
2022-11-04T03:59:51.880Z,0
2022-11-04T04:14:51.797Z,0
2022-11-04T04:29:51.799Z,0
2022-11-04T04:44:51.784Z,0
2022-11-04T04:59:51.803Z,0
2022-11-04T05:14:51.998Z,0
2022-11-04T05:29:51.750Z,0
2022-11-04T05:44:51.745Z,0
2022-11-04T05:59:51.726Z,0
2022-11-04T06:29:51.738Z,0
2022-11-04T06:44:51.730Z,0
2022-11-04T06:59:51.715Z,0
2022-11-04T07:14:51.668Z,0
2022-11-04T07:29:51.703Z,0
2022-11-04T07:44:51.680Z,0
2022-11-04T07:59:51.650Z,0
2022-11-04T08:14:51.621Z,0
2022-11-04T08:29:51.638Z,0
2022-11-04T08:44:51.612Z,0
2022-11-04T08:59:51.613Z,0
2022-11-04T09:14:51.557Z,0
2022-11-04T09:29:51.567Z,0
2022-11-04T09:45:14.915Z,0
2022-11-04T09:59:51.585Z,0
2022-11-04T10:14:51.498Z,0
2022-11-04T10:29:51.518Z,2
2022-11-04T10:44:51.497Z,0
2022-11-04T10:59:51.493Z,35
2022-11-04T11:14:51.439Z,19
2022-11-04T11:29:51.453Z,116
2022-11-04T11:44:51.427Z,49
2022-11-04T12:14:51.383Z,10
2022-11-04T12:29:51.411Z,120
2022-11-04T12:44:51.382Z,42
2022-11-04T12:59:51.386Z,0
2022-11-04T13:14:51.329Z,0
2022-11-04T13:29:51.346Z,0
2022-11-04T13:44:51.325Z,2
2022-11-04T13:59:51.328Z,8
2022-11-04T14:14:51.297Z,69
2022-11-04T14:29:51.307Z,0
2022-11-04T14:44:51.278Z,7
2022-11-04T14:59:51.245Z,19
2022-11-04T15:29:51.246Z,0
2022-11-04T15:44:51.210Z,4
2022-11-04T15:59:51.219Z,0
2022-11-04T16:14:51.165Z,0
2022-11-04T16:29:51.206Z,0
2022-11-04T16:44:51.158Z,0
2022-11-04T16:59:51.185Z,46
2022-11-04T17:14:51.122Z,29
2022-11-04T17:29:51.155Z,3
2022-11-04T17:44:51.088Z,1
2022-11-04T17:59:51.119Z,0
2022-11-04T18:14:51.077Z,0
2022-11-04T18:29:51.049Z,0
2022-11-04T18:44:51.037Z,0
2022-11-04T18:59:51.041Z,0
2022-11-04T19:14:51.014Z,0
2022-11-04T19:29:50.998Z,0
2022-11-04T19:44:50.996Z,61
2022-11-04T19:59:50.975Z,136
2022-11-04T20:14:50.965Z,108
2022-11-04T20:29:50.979Z,21
2022-11-04T20:44:50.930Z,0
2022-11-04T20:59:50.955Z,0
2022-11-04T21:14:50.904Z,0
2022-11-04T21:29:50.944Z,88
2022-11-04T21:44:50.879Z,7
2022-11-04T21:59:50.913Z,86
2022-11-04T22:14:50.958Z,116
2022-11-04T22:29:50.868Z,161
2022-11-04T22:44:50.822Z,72
2022-11-04T22:59:50.848Z,65
2022-11-04T23:14:50.795Z,58
2022-11-04T23:29:50.809Z,121
2022-11-04T23:44:50.773Z,70
2022-11-04T23:59:50.773Z,168
